createdAt,value
2023-02-08T00:03:36.272Z,-8.76
2023-02-08T00:06:23.392Z,-8.65
2023-02-08T00:09:10.516Z,-8.56
2023-02-08T00:11:57.533Z,-8.37
2023-02-08T00:14:44.703Z,-8.20
2023-02-08T00:17:32.336Z,-8.13
2023-02-08T00:20:19.624Z,-8.09
2023-02-08T00:23:06.858Z,-7.87
2023-02-08T00:25:54.013Z,-7.85
2023-02-08T00:28:41.098Z,-7.70
2023-02-08T00:31:29.556Z,-7.55
2023-02-08T00:34:16.644Z,-7.31
2023-02-08T00:37:03.731Z,-7.13
2023-02-08T00:39:50.765Z,-6.93
2023-02-08T00:42:37.879Z,-7.03
2023-02-08T00:45:25.068Z,-7.16
2023-02-08T00:48:12.156Z,-7.12
2023-02-08T00:51:09.618Z,-7.12
2023-02-08T00:53:56.661Z,-6.96
2023-02-08T00:56:44.497Z,-6.96
2023-02-08T00:59:31.578Z,-6.87
2023-02-08T01:02:18.825Z,-6.87
2023-02-08T01:05:06.613Z,-6.79
2023-02-08T01:07:53.749Z,-6.81
2023-02-08T01:10:41.627Z,-6.87
2023-02-08T01:13:28.873Z,-6.72
2023-02-08T01:16:20.711Z,-6.48
2023-02-08T01:19:07.926Z,-6.57
2023-02-08T01:21:55.163Z,-6.57
2023-02-08T01:24:42.297Z,-6.57
2023-02-08T01:27:29.343Z,-6.30
2023-02-08T01:30:17.688Z,-6.31
2023-02-08T01:33:04.782Z,-6.34
2023-02-08T01:35:53.021Z,-6.37
2023-02-08T01:38:40.195Z,-6.35
2023-02-08T01:41:33.873Z,-6.24
2023-02-08T01:45:06.048Z,-6.23
2023-02-08T01:47:58.705Z,-6.11
2023-02-08T01:51:20.621Z,-6.06
2023-02-08T01:54:10.383Z,-6.13
2023-02-08T01:56:57.674Z,-6.31
2023-02-08T01:59:53.423Z,-6.22
2023-02-08T02:02:41.958Z,-6.21
2023-02-08T02:05:35.544Z,-6.26
2023-02-08T02:08:22.762Z,-6.06
2023-02-08T02:11:09.900Z,-6.07
2023-02-08T02:13:58.391Z,-6.01
2023-02-08T02:16:45.601Z,-5.89
2023-02-08T02:20:08.110Z,-5.89
2023-02-08T02:23:25.416Z,-5.89
2023-02-08T02:26:40.106Z,-5.81
2023-02-08T02:29:58.125Z,-5.77
2023-02-08T02:32:55.636Z,-5.76
2023-02-08T02:36:01.124Z,-5.80
2023-02-08T02:39:15.740Z,-5.77
2023-02-08T02:42:47.999Z,-5.78
2023-02-08T02:46:19.922Z,-5.67
2023-02-08T02:49:12.754Z,-5.63
2023-02-08T02:52:06.141Z,-5.61
2023-02-08T02:54:56.143Z,-5.45
2023-02-08T02:57:47.185Z,-5.43
2023-02-08T03:00:34.512Z,-5.49
2023-02-08T03:03:25.362Z,-5.44
2023-02-08T03:06:25.605Z,-5.47
2023-02-08T03:09:12.615Z,-5.38
2023-02-08T03:12:12.175Z,-5.47
2023-02-08T03:15:35.561Z,-5.30
2023-02-08T03:18:52.556Z,-5.09
2023-02-08T03:21:55.503Z,-5.28
2023-02-08T03:25:03.396Z,-5.03
2023-02-08T03:28:01.958Z,-5.19
2023-02-08T03:31:18.947Z,-5.24
2023-02-08T03:34:13.268Z,-5.32
2023-02-08T03:37:10.306Z,-5.39
2023-02-08T03:40:06.633Z,-5.34
2023-02-08T03:42:57.040Z,-5.07
2023-02-08T03:45:50.264Z,-5.00
2023-02-08T03:48:40.862Z,-5.22
2023-02-08T03:51:30.337Z,-4.92
2023-02-08T03:54:24.492Z,-5.09
2023-02-08T03:57:18.705Z,-4.89
2023-02-08T04:00:14.621Z,-4.88
2023-02-08T04:03:26.226Z,-5.06
2023-02-08T04:06:13.505Z,-4.76
2023-02-08T04:09:01.633Z,-4.93
2023-02-08T04:11:48.733Z,-4.75
2023-02-08T04:14:35.795Z,-4.83
2023-02-08T04:17:22.868Z,-4.77
2023-02-08T04:20:10.673Z,-4.85
2023-02-08T04:22:57.781Z,-4.82
2023-02-08T04:25:44.920Z,-4.68
2023-02-08T04:28:32.009Z,-4.80
2023-02-08T04:31:19.196Z,-4.81
2023-02-08T04:34:06.364Z,-4.74
2023-02-08T04:36:53.571Z,-4.44
2023-02-08T04:39:40.622Z,-4.55
2023-02-08T04:42:28.093Z,-4.61
2023-02-08T04:45:15.253Z,-4.64
2023-02-08T04:48:02.453Z,-4.64
2023-02-08T04:50:49.547Z,-4.69
2023-02-08T04:53:36.622Z,-4.75
2023-02-08T04:56:23.762Z,-4.55
2023-02-08T04:59:10.861Z,-4.69
2023-02-08T05:01:58.048Z,-4.60
2023-02-08T05:04:45.237Z,-4.56
2023-02-08T05:07:33.382Z,-4.68
2023-02-08T05:10:20.557Z,-4.83
2023-02-08T05:13:07.795Z,-4.60
2023-02-08T05:15:54.887Z,-4.62
2023-02-08T05:18:42.128Z,-4.64
2023-02-08T05:21:30.420Z,-4.67
2023-02-08T05:24:17.645Z,-4.66
2023-02-08T05:27:04.702Z,-4.81
2023-02-08T05:29:51.814Z,-4.68
2023-02-08T05:32:38.928Z,-4.81
2023-02-08T05:35:25.970Z,-4.84
2023-02-08T05:38:13.009Z,-4.89
2023-02-08T05:41:00.074Z,-4.89
2023-02-08T05:43:47.146Z,-5.04
2023-02-08T05:46:35.463Z,-5.03
2023-02-08T05:49:24.310Z,-4.97
2023-02-08T05:52:11.500Z,-4.98
2023-02-08T05:54:58.509Z,-5.01
2023-02-08T05:57:45.568Z,-5.12
2023-02-08T06:00:32.619Z,-5.40
2023-02-08T06:03:19.739Z,-5.34
2023-02-08T06:06:07.968Z,-5.26
2023-02-08T06:08:55.027Z,-5.29
2023-02-08T06:11:42.066Z,-5.25
2023-02-08T06:14:29.091Z,-5.35
2023-02-08T06:17:16.132Z,-5.36
2023-02-08T06:20:03.434Z,-5.44
2023-02-08T06:22:50.647Z,-5.49
2023-02-08T06:25:37.904Z,-5.44
2023-02-08T06:28:25.093Z,-5.48
2023-02-08T06:31:12.217Z,-5.41
2023-02-08T06:33:59.273Z,-5.38
2023-02-08T06:36:46.508Z,-5.47
2023-02-08T06:39:33.623Z,-5.51
2023-02-08T06:42:20.675Z,-5.52
2023-02-08T06:45:11.022Z,-5.51
2023-02-08T06:47:59.314Z,-5.59
2023-02-08T06:50:46.343Z,-5.56
2023-02-08T06:53:33.428Z,-5.59
2023-02-08T06:56:20.542Z,-5.58
2023-02-08T06:59:07.631Z,-5.55
2023-02-08T07:01:54.687Z,-5.56
2023-02-08T07:04:41.936Z,-5.65
2023-02-08T07:07:29.105Z,-5.47
2023-02-08T07:10:16.779Z,-5.54
2023-02-08T07:13:04.114Z,-5.59
2023-02-08T07:15:51.146Z,-5.50
2023-02-08T07:18:38.246Z,-5.51
2023-02-08T07:21:25.363Z,-5.54
2023-02-08T07:24:12.360Z,-5.47
2023-02-08T07:26:59.375Z,-5.42
2023-02-08T07:29:46.440Z,-5.41
2023-02-08T07:32:34.833Z,-5.38
2023-02-08T07:35:22.106Z,-5.32
2023-02-08T07:38:10.269Z,-5.33
2023-02-08T07:41:08.482Z,-5.43
2023-02-08T07:43:55.564Z,-5.41
2023-02-08T07:46:42.659Z,-5.31
2023-02-08T07:49:30.413Z,-5.45
2023-02-08T07:52:17.420Z,-5.31
2023-02-08T07:55:04.639Z,-5.60
2023-02-08T07:57:51.750Z,-5.32
2023-02-08T08:00:39.023Z,-5.22
2023-02-08T08:03:26.254Z,-5.20
2023-02-08T08:06:13.414Z,-5.27
2023-02-08T08:09:00.576Z,-5.17
2023-02-08T08:11:47.663Z,-5.17
2023-02-08T08:14:34.659Z,-5.12
2023-02-08T08:17:21.831Z,-5.13
2023-02-08T08:20:11.107Z,-5.03
2023-02-08T08:22:58.318Z,-5.18
2023-02-08T08:25:45.387Z,-4.90
2023-02-08T08:28:32.629Z,-4.82
2023-02-08T08:31:22.002Z,-4.70
2023-02-08T08:34:09.220Z,-4.71
2023-02-08T08:37:01.708Z,-4.77
2023-02-08T08:39:49.917Z,-4.78
2023-02-08T08:42:39.859Z,-4.68
2023-02-08T08:45:27.114Z,-4.63
2023-02-08T08:48:14.178Z,-4.69
2023-02-08T08:51:01.370Z,-4.54
2023-02-08T08:53:48.467Z,-4.50
2023-02-08T08:56:35.573Z,-4.55
2023-02-08T08:59:22.749Z,-4.36
2023-02-08T09:02:13.664Z,-4.27
2023-02-08T09:05:00.692Z,-4.27
2023-02-08T09:07:47.754Z,-4.20
2023-02-08T09:10:34.818Z,-4.19
2023-02-08T09:13:22.037Z,-4.00
2023-02-08T09:16:13.132Z,-3.49
2023-02-08T09:19:08.396Z,-2.94
2023-02-08T09:21:55.527Z,-2.59
2023-02-08T09:24:42.668Z,-2.23
2023-02-08T09:27:29.908Z,-1.80
2023-02-08T09:30:17.051Z,-1.79
2023-02-08T09:33:04.163Z,-1.48
2023-02-08T09:35:51.207Z,-1.51
2023-02-08T09:38:38.908Z,-0.99
2023-02-08T09:41:44.433Z,-0.89
2023-02-08T09:44:40.121Z,-0.65
2023-02-08T09:47:34.314Z,-0.62
2023-02-08T09:50:44.788Z,-0.39
2023-02-08T09:53:40.513Z,-0.15
2023-02-08T09:56:36.440Z,-0.67
2023-02-08T09:59:29.608Z,-0.32
2023-02-08T10:02:30.150Z,-0.27
2023-02-08T10:05:22.427Z,-0.21
2023-02-08T10:08:11.891Z,-0.12
2023-02-08T10:11:01.999Z,-0.07
2023-02-08T10:14:07.797Z,0.31
2023-02-08T10:17:21.201Z,0.28
2023-02-08T10:20:22.932Z,0.31
2023-02-08T10:23:21.931Z,-0.24
2023-02-08T10:26:40.442Z,0.17
2023-02-08T10:29:35.830Z,-0.19
2023-02-08T10:33:12.930Z,-0.28
2023-02-08T10:36:00.058Z,-0.27
2023-02-08T10:38:51.732Z,-0.23
2023-02-08T10:41:39.049Z,-0.21
2023-02-08T10:45:24.253Z,-0.63
2023-02-08T10:48:20.111Z,-0.49
2023-02-08T10:51:12.540Z,-0.63
2023-02-08T10:53:59.804Z,-0.56
2023-02-08T10:56:58.315Z,-0.65
2023-02-08T10:59:56.507Z,-0.78
2023-02-08T11:02:44.011Z,-0.82
2023-02-08T11:05:38.750Z,-0.62
2023-02-08T11:08:27.904Z,-0.50
2023-02-08T11:11:15.529Z,-0.53
2023-02-08T11:14:16.365Z,-0.44
2023-02-08T11:17:03.500Z,-0.49
2023-02-08T11:19:50.997Z,-0.43
2023-02-08T11:22:38.166Z,-0.36
2023-02-08T11:25:38.904Z,-0.61
2023-02-08T11:28:31.200Z,-0.39
2023-02-08T11:31:21.116Z,-0.51
2023-02-08T11:34:11.525Z,-0.51
2023-02-08T11:37:02.575Z,-0.36
2023-02-08T11:39:58.530Z,-0.20
2023-02-08T11:42:47.201Z,-0.10
2023-02-08T11:45:36.229Z,-0.18
2023-02-08T11:48:51.444Z,0.06
2023-02-08T11:51:39.564Z,0.05
2023-02-08T11:54:41.492Z,-0.01
2023-02-08T11:57:28.590Z,-0.23
2023-02-08T12:00:27.646Z,0.18
2023-02-08T12:03:18.718Z,-0.31
2023-02-08T12:06:17.744Z,0.10
2023-02-08T12:09:40.294Z,0.24
2023-02-08T12:12:46.024Z,0.25
2023-02-08T12:16:06.501Z,0.26
2023-02-08T12:19:12.242Z,0.20
2023-02-08T12:22:04.379Z,0.17
2023-02-08T12:24:59.609Z,0.23
2023-02-08T12:28:12.995Z,0.28
2023-02-08T12:31:41.900Z,0.16
2023-02-08T12:34:43.927Z,0.33
2023-02-08T12:38:13.047Z,0.26
2023-02-08T12:41:12.138Z,0.24
2023-02-08T12:44:09.347Z,0.26
2023-02-08T12:47:30.412Z,0.46
2023-02-08T12:50:41.879Z,0.35
2023-02-08T12:53:39.870Z,0.04
2023-02-08T12:56:40.584Z,-0.04
2023-02-08T12:59:40.635Z,0.56
2023-02-08T13:02:59.792Z,0.43
2023-02-08T13:06:01.607Z,0.36
2023-02-08T13:09:04.117Z,0.45
2023-02-08T13:12:06.747Z,0.14
2023-02-08T13:15:28.391Z,0.42
2023-02-08T13:18:35.494Z,0.51
2023-02-08T13:21:32.619Z,0.63
2023-02-08T13:24:27.845Z,0.33
2023-02-08T13:27:21.358Z,0.07
2023-02-08T13:30:19.855Z,0.54
2023-02-08T13:33:28.973Z,0.51
2023-02-08T13:36:33.468Z,0.72
2023-02-08T13:39:46.448Z,0.70
2023-02-08T13:42:49.159Z,0.44
2023-02-08T13:45:45.443Z,0.27
2023-02-08T13:48:48.208Z,0.70
2023-02-08T13:51:35.238Z,0.87
2023-02-08T13:54:23.276Z,0.56
2023-02-08T13:57:55.870Z,0.86
2023-02-08T14:00:55.171Z,0.90
2023-02-08T14:03:42.399Z,0.72
2023-02-08T14:06:31.104Z,0.90
2023-02-08T14:09:24.765Z,0.97
2023-02-08T14:12:49.946Z,0.89
2023-02-08T14:15:40.003Z,0.99
2023-02-08T14:18:28.940Z,0.80
2023-02-08T14:21:36.576Z,0.95
2023-02-08T14:24:26.601Z,1.10
2023-02-08T14:27:41.142Z,1.30
2023-02-08T14:30:31.972Z,1.25
2023-02-08T14:33:25.396Z,0.86
2023-02-08T14:36:30.900Z,1.11
2023-02-08T14:39:26.439Z,1.01
2023-02-08T14:42:14.493Z,0.87
2023-02-08T14:45:02.720Z,0.93
2023-02-08T14:47:55.741Z,0.68
2023-02-08T14:50:52.322Z,0.48
2023-02-08T14:53:42.282Z,0.81
2023-02-08T14:56:33.731Z,0.53
2023-02-08T14:59:25.569Z,0.64
2023-02-08T15:02:20.454Z,0.43
2023-02-08T15:05:10.703Z,0.50
2023-02-08T15:07:58.442Z,0.29
2023-02-08T15:10:46.132Z,0.13
2023-02-08T15:13:35.339Z,0.09
2023-02-08T15:16:48.753Z,-0.10
2023-02-08T15:19:43.316Z,-0.06
2023-02-08T15:22:34.953Z,-0.10
2023-02-08T15:25:26.880Z,-0.27
2023-02-08T15:28:22.052Z,-0.30
2023-02-08T15:31:14.644Z,-0.32
2023-02-08T15:34:04.241Z,-0.32
2023-02-08T15:36:54.168Z,-0.32
2023-02-08T15:39:41.567Z,-0.40
2023-02-08T15:42:33.863Z,-0.41
2023-02-08T15:45:26.974Z,-0.42
2023-02-08T15:48:14.332Z,-0.55
2023-02-08T15:51:02.978Z,-0.60
2023-02-08T15:53:55.822Z,-0.62
2023-02-08T15:56:50.371Z,-0.70
2023-02-08T15:59:40.225Z,-0.63
2023-02-08T16:02:31.252Z,-0.86
2023-02-08T16:05:22.169Z,-0.80
2023-02-08T16:08:22.292Z,-0.85
2023-02-08T16:11:21.245Z,-0.88
2023-02-08T16:14:08.508Z,-1.16
2023-02-08T16:16:58.537Z,-1.00
2023-02-08T16:19:51.495Z,-1.05
2023-02-08T16:22:39.124Z,-1.09
2023-02-08T16:25:46.021Z,-1.22
2023-02-08T16:28:43.268Z,-1.22
2023-02-08T16:31:33.040Z,-1.19
2023-02-08T16:34:22.935Z,-1.23
2023-02-08T16:37:25.937Z,-1.43
2023-02-08T16:40:38.385Z,-1.45
2023-02-08T16:43:25.782Z,-1.43
2023-02-08T16:46:19.297Z,-1.45
2023-02-08T16:49:10.330Z,-1.53
2023-02-08T16:52:00.798Z,-1.58
2023-02-08T16:54:47.904Z,-1.64
2023-02-08T16:57:46.095Z,-1.56
2023-02-08T17:00:35.665Z,-1.81
2023-02-08T17:03:22.954Z,-1.71
2023-02-08T17:06:31.783Z,-1.64
2023-02-08T17:09:19.857Z,-1.70
2023-02-08T17:12:21.734Z,-1.63
2023-02-08T17:15:10.309Z,-1.70
2023-02-08T17:17:58.005Z,-1.82
2023-02-08T17:20:45.839Z,-1.66
2023-02-08T17:23:34.678Z,-1.80
2023-02-08T17:26:48.419Z,-2.15
2023-02-08T17:29:35.997Z,-1.85
2023-02-08T17:32:23.605Z,-1.98
2023-02-08T17:35:15.850Z,-1.95
2023-02-08T17:38:04.449Z,-1.88
2023-02-08T17:40:51.999Z,-1.95
2023-02-08T17:43:39.824Z,-1.92
2023-02-08T17:46:30.804Z,-2.00
2023-02-08T17:49:18.328Z,-1.99
2023-02-08T17:52:07.166Z,-2.10
2023-02-08T17:54:55.238Z,-2.05
2023-02-08T17:57:44.250Z,-2.17
2023-02-08T18:00:33.273Z,-2.20
2023-02-08T18:03:22.279Z,-2.14
2023-02-08T18:06:10.090Z,-2.16
2023-02-08T18:08:58.140Z,-2.18
2023-02-08T18:11:46.150Z,-2.24
2023-02-08T18:14:34.285Z,-2.10
2023-02-08T18:17:22.763Z,-2.17
2023-02-08T18:20:16.767Z,-2.24
2023-02-08T18:23:04.321Z,-2.19
2023-02-08T18:25:52.612Z,-2.42
2023-02-08T18:28:43.912Z,-2.22
2023-02-08T18:31:34.158Z,-2.31
2023-02-08T18:34:21.962Z,-2.44
2023-02-08T18:37:10.518Z,-2.63
2023-02-08T18:39:58.492Z,-2.56
2023-02-08T18:42:46.775Z,-2.50
2023-02-08T18:45:34.799Z,-2.70
2023-02-08T18:48:22.896Z,-2.54
2023-02-08T18:51:11.853Z,-2.67
2023-02-08T18:54:00.377Z,-2.70
2023-02-08T18:56:52.870Z,-2.64
2023-02-08T18:59:42.005Z,-2.54
2023-02-08T19:02:31.973Z,-2.66
2023-02-08T19:05:20.182Z,-2.73
2023-02-08T19:08:08.015Z,-2.78
2023-02-08T19:10:55.883Z,-2.78
2023-02-08T19:13:44.896Z,-2.85
2023-02-08T19:16:37.792Z,-2.91
2023-02-08T19:19:26.175Z,-2.89
2023-02-08T19:22:17.048Z,-2.76
2023-02-08T19:25:04.842Z,-2.94
2023-02-08T19:27:53.431Z,-2.84
2023-02-08T19:30:41.560Z,-2.86
2023-02-08T19:33:30.404Z,-2.89
2023-02-08T19:36:22.749Z,-2.76
2023-02-08T19:39:15.679Z,-2.84
2023-02-08T19:42:03.946Z,-2.88
2023-02-08T19:44:52.191Z,-2.94
2023-02-08T19:47:50.943Z,-2.86
2023-02-08T19:50:39.602Z,-2.94
2023-02-08T19:53:29.312Z,-2.90
2023-02-08T19:56:22.549Z,-2.94
2023-02-08T19:59:20.162Z,-2.88
2023-02-08T20:02:11.668Z,-2.91
2023-02-08T20:04:59.685Z,-2.83
2023-02-08T20:07:47.637Z,-2.85
2023-02-08T20:10:42.749Z,-2.89
2023-02-08T20:13:32.275Z,-2.93
2023-02-08T20:16:22.470Z,-2.88
2023-02-08T20:19:12.945Z,-2.93
2023-02-08T20:22:01.621Z,-2.91
2023-02-08T20:24:51.170Z,-2.90
2023-02-08T20:27:38.966Z,-3.05
2023-02-08T20:30:27.442Z,-3.09
2023-02-08T20:33:16.094Z,-3.11
2023-02-08T20:36:10.259Z,-3.01
2023-02-08T20:39:01.705Z,-3.06
2023-02-08T20:41:49.642Z,-3.19
2023-02-08T20:44:37.620Z,-3.12
2023-02-08T20:47:27.439Z,-3.24
2023-02-08T20:50:27.004Z,-3.41
2023-02-08T20:53:15.180Z,-3.39
2023-02-08T20:56:19.512Z,-3.51
2023-02-08T20:59:16.684Z,-3.61
2023-02-08T21:02:08.364Z,-3.50
2023-02-08T21:05:00.785Z,-3.62
2023-02-08T21:07:49.334Z,-3.54
2023-02-08T21:10:37.269Z,-3.35
2023-02-08T21:13:24.703Z,-3.40
2023-02-08T21:16:14.722Z,-3.30
2023-02-08T21:19:02.486Z,-3.21
2023-02-08T21:21:53.376Z,-3.29
2023-02-08T21:24:40.650Z,-3.48
2023-02-08T21:27:27.969Z,-3.52
2023-02-08T21:30:15.257Z,-3.59
2023-02-08T21:33:05.713Z,-3.77
2023-02-08T21:35:54.778Z,-3.90
2023-02-08T21:38:43.504Z,-4.09
2023-02-08T21:41:33.486Z,-4.18
2023-02-08T21:44:21.072Z,-4.19
2023-02-08T21:47:08.354Z,-4.16
2023-02-08T21:50:14.509Z,-4.37
2023-02-08T21:53:29.237Z,-4.24
2023-02-08T21:56:16.434Z,-4.31
2023-02-08T21:59:03.512Z,-4.30
2023-02-08T22:01:50.590Z,-4.38
2023-02-08T22:04:57.398Z,-4.33
2023-02-08T22:07:50.506Z,-4.31
2023-02-08T22:10:39.444Z,-4.40
2023-02-08T22:13:28.045Z,-4.44
2023-02-08T22:16:17.316Z,-4.30
2023-02-08T22:19:06.137Z,-4.25
2023-02-08T22:21:53.203Z,-4.35
2023-02-08T22:24:40.399Z,-4.37
2023-02-08T22:27:27.916Z,-4.41
2023-02-08T22:30:18.622Z,-4.41
2023-02-08T22:33:05.780Z,-4.50
2023-02-08T22:35:56.770Z,-4.47
2023-02-08T22:38:52.619Z,-4.58
2023-02-08T22:41:39.667Z,-4.69
2023-02-08T22:44:26.687Z,-4.75
2023-02-08T22:47:14.375Z,-4.62
2023-02-08T22:50:01.712Z,-4.67
2023-02-08T22:52:48.990Z,-4.70
2023-02-08T22:55:36.011Z,-4.56
2023-02-08T22:58:24.917Z,-4.62
2023-02-08T23:01:17.189Z,-4.60
2023-02-08T23:04:04.564Z,-4.59
2023-02-08T23:06:51.633Z,-4.47
2023-02-08T23:09:38.815Z,-4.45
2023-02-08T23:12:26.084Z,-4.57
2023-02-08T23:15:13.321Z,-4.68
2023-02-08T23:18:00.487Z,-4.72
2023-02-08T23:20:47.797Z,-5.03
2023-02-08T23:23:34.922Z,-4.97
2023-02-08T23:26:22.501Z,-5.04
2023-02-08T23:29:09.640Z,-5.02
2023-02-08T23:31:56.693Z,-4.97
2023-02-08T23:34:44.116Z,-5.47
2023-02-08T23:37:34.225Z,-5.23
2023-02-08T23:40:21.669Z,-5.35
2023-02-08T23:43:09.077Z,-5.33
2023-02-08T23:45:56.451Z,-5.34
2023-02-08T23:48:44.936Z,-5.25
2023-02-08T23:51:25.425Z,-5.28
2023-02-08T23:54:03.679Z,-5.29
2023-02-08T23:56:43.670Z,-5.52
2023-02-08T23:59:23.694Z,-5.49
